Italic G — IBYH — position and weather

sailwx.info

Track history (hours):
 
Tides and Currents Weather Stations Pressure Air Temp Water Temp Dewpoint Dewpoint Depression Visibility Wind Speed Wind Dir Waves Ship Positions

Italic G

Last reported at 2016-May-27 08:28 UTC. Time now 2016-May-29 07:44 UTC.
Position N 35°59' W 005°31'.

Length 229 m; draft 8.1 m.

Type: Cargo ship. MMSI: 247282300.

Date/timePositionNaut miles runAvg speedWind from/ knotsBaromVisibWave heightAir tempDewpointWater temp
2016-May-27 08:28N 35°59' W 005°31'9 9.5
2016-May-27 07:33N 36°04' W 005°23'3 2.6
2016-May-27 06:33N 36°04' W 005°20'7 6.7
2016-May-27 05:29N 36°05' W 005°11'26810.0
2016-May-26 02:33N 36°51' E 000°17'4510.7
2016-May-25 22:22N 37°02' E 001°12'1012.4
2016-May-25 21:33N 37°04' E 001°24'1312.7
2016-May-25 20:33N 37°07' E 001°40'1212.4
2016-May-25 19:33N 37°09' E 001°55'1612.5
2016-May-25 18:16N 37°12' E 002°15'14712.2
2016-May-25 06:10N 37°30' E 005°19'812.4
2016-May-25 05:33N 37°31' E 005°28'1312.6
2016-May-25 04:33N 37°32' E 005°44'1312.8
2016-May-25 03:33N 37°32' E 006°00'1212.3
2016-May-25 02:33N 37°33' E 006°16'4112.3
2016-May-24 23:12N 37°37' E 007°08'3912.6
2016-May-24 20:04N 37°40' E 007°57'12012.5
2016-May-24 10:28N 37°36' E 010°28'4511.1
2016-May-24 06:27N 37°23' E 011°22'4511.5
2016-May-24 02:33N 37°01' E 012°11'1111.3
2016-May-24 01:33N 36°55' E 012°23'1211.6
2016-May-24 00:28N 36°49' E 012°37'1111.5
2016-May-23 23:33N 36°44' E 012°48'1111.3
2016-May-23 22:33N 36°39' E 013°01'1211.5
2016-May-23 21:33N 36°34' E 013°14'1211.7
2016-May-23 20:33N 36°28' E 013°26'1211.9
2016-May-23 19:33N 36°23' E 013°40'1212.1
2016-May-23 18:33N 36°17' E 013°53'1312.5
2016-May-23 17:33N 36°11' E 014°07'1212.3
2016-May-23 16:33N 36°06' E 014°21'1212.0
2016-May-23 15:33N 36°01' E 014°34'1212.2
2016-May-23 14:33N 35°55' E 014°47'3 3.2
2016-May-23 13:31N 35°54' E 014°51'0 0.0
2016-May-23 12:31N 35°54' E 014°51'0 0.0
2016-May-23 11:31N 35°54' E 014°51'0 0.0
2016-May-23 10:31N 35°54' E 014°51'0 0.0
2016-May-23 09:31N 35°54' E 014°51'0 0.0
2016-May-23 08:31N 35°54' E 014°51'0 0.0
2016-May-23 07:31N 35°54' E 014°51'0 0.0
2016-May-23 06:31N 35°54' E 014°51'0 0.1
2016-May-23 05:31N 35°54' E 014°51'0 0.1
2016-May-23 04:31N 35°54' E 014°51'0 0.0
2016-May-23 03:31N 35°54' E 014°51'0 0.0
2016-May-23 02:31N 35°54' E 014°51'4 4.6
2016-May-23 01:33N 35°52' E 014°47'0 0.1
2016-May-23 00:31N 35°52' E 014°47'0 0.0
2016-May-22 23:31N 35°52' E 014°47'0 0.0
2016-May-22 22:33N 35°52' E 014°47'0 0.0
2016-May-22 21:33N 35°52' E 014°47'0 0.1
2016-May-22 20:33N 35°52' E 014°47'0 0.1
2016-May-22 19:33N 35°52' E 014°47'0 0.1
2016-May-22 18:33N 35°52' E 014°47'0 0.0
2016-May-22 17:33N 35°52' E 014°47'4 4.0
2016-May-22 16:32N 35°54' E 014°51'0 0.1
2016-May-22 15:32N 35°54' E 014°51'0 0.0
2016-May-22 14:32N 35°54' E 014°51'0 0.0
2016-May-22 13:32N 35°54' E 014°51'0 0.0
2016-May-22 12:32N 35°54' E 014°51'0 0.0
2016-May-22 11:32N 35°54' E 014°51'0 0.0
2016-May-22 10:32N 35°54' E 014°51'0 0.0
2016-May-22 09:32N 35°54' E 014°51'0 0.1
2016-May-22 08:31N 35°54' E 014°51'9 8.0
2016-May-22 07:25N 36°03' E 014°53'1112.6
2016-May-22 06:33N 36°13' E 014°58'1212.3
2016-May-22 05:33N 36°22' E 015°07'7812.9
2016-May-21 23:31N 37°27' E 016°00'1212.6
2016-May-21 22:32N 37°38' E 016°09'  
Track history (hours):
 
Tides and Currents Weather Stations Pressure Air Temp Water Temp Dewpoint Dewpoint Depression Visibility Wind Speed Wind Dir Waves Ship Positions

Italic G

Last reported at 2016-May-27 08:28 UTC. Time now 2016-May-29 07:44 UTC.
Position N 35°59' W 005°31'.

Length 229 m; draft 8.1 m.

Type: Cargo ship. MMSI: 247282300.

Date/timePositionNaut miles runAvg speedWind from/ knotsBaromVisibWave heightAir tempDewpointWater temp
2016-May-27 08:28N 35°59' W 005°31'9 9.5
2016-May-27 07:33N 36°04' W 005°23'3 2.6
2016-May-27 06:33N 36°04' W 005°20'7 6.7
2016-May-27 05:29N 36°05' W 005°11'26810.0
2016-May-26 02:33N 36°51' E 000°17'4510.7
2016-May-25 22:22N 37°02' E 001°12'1012.4
2016-May-25 21:33N 37°04' E 001°24'1312.7
2016-May-25 20:33N 37°07' E 001°40'1212.4
2016-May-25 19:33N 37°09' E 001°55'1612.5
2016-May-25 18:16N 37°12' E 002°15'14712.2
2016-May-25 06:10N 37°30' E 005°19'812.4
2016-May-25 05:33N 37°31' E 005°28'1312.6
2016-May-25 04:33N 37°32' E 005°44'1312.8
2016-May-25 03:33N 37°32' E 006°00'1212.3
2016-May-25 02:33N 37°33' E 006°16'4112.3
2016-May-24 23:12N 37°37' E 007°08'3912.6
2016-May-24 20:04N 37°40' E 007°57'12012.5
2016-May-24 10:28N 37°36' E 010°28'4511.1
2016-May-24 06:27N 37°23' E 011°22'4511.5
2016-May-24 02:33N 37°01' E 012°11'1111.3
2016-May-24 01:33N 36°55' E 012°23'1211.6
2016-May-24 00:28N 36°49' E 012°37'1111.5
2016-May-23 23:33N 36°44' E 012°48'1111.3
2016-May-23 22:33N 36°39' E 013°01'1211.5
2016-May-23 21:33N 36°34' E 013°14'1211.7
2016-May-23 20:33N 36°28' E 013°26'1211.9
2016-May-23 19:33N 36°23' E 013°40'1212.1
2016-May-23 18:33N 36°17' E 013°53'1312.5
2016-May-23 17:33N 36°11' E 014°07'1212.3
2016-May-23 16:33N 36°06' E 014°21'1212.0
2016-May-23 15:33N 36°01' E 014°34'1212.2
2016-May-23 14:33N 35°55' E 014°47'3 3.2
2016-May-23 13:31N 35°54' E 014°51'0 0.0
2016-May-23 12:31N 35°54' E 014°51'0 0.0
2016-May-23 11:31N 35°54' E 014°51'0 0.0
2016-May-23 10:31N 35°54' E 014°51'0 0.0
2016-May-23 09:31N 35°54' E 014°51'0 0.0
2016-May-23 08:31N 35°54' E 014°51'0 0.0
2016-May-23 07:31N 35°54' E 014°51'0 0.0
2016-May-23 06:31N 35°54' E 014°51'0 0.1
2016-May-23 05:31N 35°54' E 014°51'0 0.1
2016-May-23 04:31N 35°54' E 014°51'0 0.0
2016-May-23 03:31N 35°54' E 014°51'0 0.0
2016-May-23 02:31N 35°54' E 014°51'4 4.6
2016-May-23 01:33N 35°52' E 014°47'0 0.1
2016-May-23 00:31N 35°52' E 014°47'0 0.0
2016-May-22 23:31N 35°52' E 014°47'0 0.0
2016-May-22 22:33N 35°52' E 014°47'0 0.0
2016-May-22 21:33N 35°52' E 014°47'0 0.1
2016-May-22 20:33N 35°52' E 014°47'0 0.1
2016-May-22 19:33N 35°52' E 014°47'0 0.1
2016-May-22 18:33N 35°52' E 014°47'0 0.0
2016-May-22 17:33N 35°52' E 014°47'4 4.0
2016-May-22 16:32N 35°54' E 014°51'0 0.1
2016-May-22 15:32N 35°54' E 014°51'0 0.0
2016-May-22 14:32N 35°54' E 014°51'0 0.0
2016-May-22 13:32N 35°54' E 014°51'0 0.0
2016-May-22 12:32N 35°54' E 014°51'0 0.0
2016-May-22 11:32N 35°54' E 014°51'0 0.0
2016-May-22 10:32N 35°54' E 014°51'0 0.0
2016-May-22 09:32N 35°54' E 014°51'0 0.1
2016-May-22 08:31N 35°54' E 014°51'9 8.0
2016-May-22 07:25N 36°03' E 014°53'1112.6
2016-May-22 06:33N 36°13' E 014°58'1212.3
2016-May-22 05:33N 36°22' E 015°07'7812.9
2016-May-21 23:31N 37°27' E 016°00'1212.6
2016-May-21 22:32N 37°38' E 016°09'  

Dump ship's entire track history